createdAt,value
2023-02-01T00:00:50.767Z,100019.16
2023-02-01T00:05:57.898Z,100014.66
2023-02-01T00:11:01.590Z,100018.97
2023-02-01T00:16:09.561Z,100033.75
2023-02-01T00:21:12.142Z,100021.22
2023-02-01T00:26:32.540Z,100032.97
2023-02-01T00:31:34.321Z,100032.41
2023-02-01T00:36:35.973Z,100036.59
2023-02-01T00:41:37.696Z,100032.13
2023-02-01T00:46:39.375Z,100030.75
2023-02-01T00:51:40.996Z,100023.47
2023-02-01T00:56:42.649Z,100032.25
2023-02-01T01:01:44.562Z,100027.94
2023-02-01T01:06:46.225Z,100030.56
2023-02-01T01:11:47.824Z,100038.22
2023-02-01T01:16:51.474Z,100036.28
2023-02-01T01:21:53.089Z,100021.09
2023-02-01T01:26:54.734Z,100019.69
2023-02-01T01:31:56.453Z,100018.41
2023-02-01T01:36:58.079Z,100026.66
2023-02-01T01:41:59.803Z,100029.00
2023-02-01T01:47:03.206Z,100020.72
2023-02-01T01:52:05.185Z,100018.63
2023-02-01T01:57:18.715Z,100017.31
2023-02-01T02:02:20.419Z,100006.53
2023-02-01T02:07:27.999Z,100008.03
2023-02-01T02:12:29.646Z,100019.09
2023-02-01T02:17:42.296Z,100007.13
2023-02-01T02:23:07.682Z,99994.72
2023-02-01T02:28:27.505Z,99998.88
2023-02-01T02:34:00.861Z,99991.50
2023-02-01T02:39:12.684Z,99997.06
2023-02-01T02:44:39.083Z,99983.34
2023-02-01T02:49:42.164Z,99983.19
2023-02-01T02:54:47.869Z,99979.94
2023-02-01T03:00:10.204Z,99993.66
2023-02-01T03:05:12.114Z,99990.28
2023-02-01T03:10:35.681Z,99994.47
2023-02-01T03:15:50.425Z,99980.19
2023-02-01T03:20:53.683Z,100001.47
2023-02-01T03:25:56.759Z,99993.94
2023-02-01T03:30:58.719Z,99989.66
2023-02-01T03:36:23.717Z,99987.06
2023-02-01T03:41:39.005Z,99970.00
2023-02-01T03:46:49.548Z,99991.72
2023-02-01T03:51:51.972Z,99978.44
2023-02-01T03:56:55.323Z,99966.25
2023-02-01T04:01:57.338Z,99969.94
2023-02-01T04:06:59.001Z,99966.53
2023-02-01T04:12:00.740Z,99963.06
2023-02-01T04:17:02.372Z,99948.84
2023-02-01T04:22:03.944Z,99947.66
2023-02-01T04:27:05.663Z,99948.91
2023-02-01T04:32:07.247Z,99941.00
2023-02-01T04:37:09.009Z,99937.91
2023-02-01T04:42:10.625Z,99929.84
2023-02-01T04:47:12.263Z,99915.75
2023-02-01T04:52:13.836Z,99917.78
2023-02-01T04:57:15.945Z,99902.38
2023-02-01T05:02:17.638Z,99906.19
2023-02-01T05:07:19.242Z,99896.75
2023-02-01T05:12:39.597Z,99899.03
2023-02-01T05:17:41.305Z,99885.84
2023-02-01T05:22:43.425Z,99877.09
2023-02-01T05:27:45.188Z,99871.31
2023-02-01T05:32:46.748Z,99872.72
2023-02-01T05:37:48.382Z,99867.44
2023-02-01T05:42:49.938Z,99867.84
2023-02-01T05:47:52.058Z,99877.53
2023-02-01T05:52:53.655Z,99867.25
2023-02-01T05:57:55.244Z,99870.78
2023-02-01T06:02:57.035Z,99863.34
2023-02-01T06:07:59.451Z,99852.00
2023-02-01T06:13:01.294Z,99869.13
2023-02-01T06:18:02.955Z,99862.22
2023-02-01T06:23:06.568Z,99865.16
2023-02-01T06:28:09.146Z,99856.09
2023-02-01T06:33:10.710Z,99858.19
2023-02-01T06:38:12.658Z,99862.94
2023-02-01T06:43:14.215Z,99861.97
2023-02-01T06:48:15.813Z,99849.66
2023-02-01T06:53:17.646Z,99855.91
2023-02-01T06:58:19.279Z,99846.69
2023-02-01T07:03:21.167Z,99847.53
2023-02-01T07:08:22.751Z,99839.16
2023-02-01T07:13:24.398Z,99846.31
2023-02-01T07:18:27.005Z,99851.19
2023-02-01T07:23:29.406Z,99847.72
2023-02-01T07:28:34.196Z,99833.16
2023-02-01T07:33:36.214Z,99846.41
2023-02-01T07:38:37.853Z,99834.94
2023-02-01T07:43:39.525Z,99821.63
2023-02-01T07:48:41.114Z,99819.13
2023-02-01T07:53:43.577Z,99824.22
2023-02-01T07:58:49.097Z,99809.84
2023-02-01T08:03:55.066Z,99798.81
2023-02-01T08:08:56.738Z,99804.44
2023-02-01T08:13:59.506Z,99805.13
2023-02-01T08:19:01.154Z,99798.56
2023-02-01T08:24:04.522Z,99794.91
2023-02-01T08:29:08.152Z,99790.69
2023-02-01T08:34:10.126Z,99774.19
2023-02-01T08:39:12.374Z,99765.81
2023-02-01T08:44:13.916Z,99775.59
2023-02-01T08:49:15.521Z,99769.19
2023-02-01T08:54:17.103Z,99758.53
2023-02-01T08:59:18.747Z,99765.53
2023-02-01T09:04:20.421Z,99759.94
2023-02-01T09:09:25.071Z,99746.75
2023-02-01T09:14:26.667Z,99754.31
2023-02-01T09:19:28.269Z,99754.59
2023-02-01T09:24:29.929Z,99769.44
2023-02-01T09:29:31.595Z,99764.97
2023-02-01T09:34:33.942Z,99773.38
2023-02-01T09:39:36.105Z,99757.28
2023-02-01T09:44:52.431Z,99772.53
2023-02-01T09:50:05.990Z,99791.56
2023-02-01T09:55:16.472Z,99791.00
2023-02-01T10:00:27.664Z,99787.94
2023-02-01T10:05:58.270Z,99798.81
2023-02-01T10:11:08.903Z,99812.41
2023-02-01T10:16:20.213Z,99823.84
2023-02-01T10:21:49.441Z,99834.09
2023-02-01T10:27:17.096Z,99820.94
2023-02-01T10:32:22.974Z,99826.22
2023-02-01T10:37:32.288Z,99833.78
2023-02-01T10:42:33.954Z,99823.75
2023-02-01T10:47:35.658Z,99818.34
2023-02-01T10:53:05.638Z,99817.75
2023-02-01T10:58:21.469Z,99822.66
2023-02-01T11:03:35.357Z,99830.81
2023-02-01T11:08:44.952Z,99843.09
2023-02-01T11:13:53.568Z,99842.84
2023-02-01T11:18:56.451Z,99838.63
2023-02-01T11:24:03.382Z,99833.31
2023-02-01T11:29:11.680Z,99839.56
2023-02-01T11:34:16.335Z,99834.72
2023-02-01T11:39:23.907Z,99822.94
2023-02-01T11:44:32.731Z,99814.25
2023-02-01T11:49:34.273Z,99810.06
2023-02-01T11:55:12.838Z,99806.97
2023-02-01T12:00:20.337Z,99801.09
2023-02-01T12:05:24.665Z,99795.38
2023-02-01T12:10:45.339Z,99810.38
2023-02-01T12:16:03.742Z,99802.06
2023-02-01T12:21:15.315Z,99796.31
2023-02-01T12:26:41.841Z,99791.72
2023-02-01T12:32:02.042Z,99771.09
2023-02-01T12:37:03.614Z,99779.22
2023-02-01T12:42:05.222Z,99780.78
2023-02-01T12:47:12.747Z,99780.94
2023-02-01T12:52:35.655Z,99777.25
2023-02-01T12:57:42.076Z,99772.22
2023-02-01T13:02:53.688Z,99769.84
2023-02-01T13:08:01.440Z,99764.09
2023-02-01T13:13:18.355Z,99763.34
2023-02-01T13:18:21.849Z,99760.56
2023-02-01T13:23:32.498Z,99756.59
2023-02-01T13:28:53.977Z,99759.28
2023-02-01T13:33:59.807Z,99759.56
2023-02-01T13:39:13.724Z,99748.91
2023-02-01T13:44:43.359Z,99739.06
2023-02-01T13:49:45.015Z,99725.19
2023-02-01T13:54:46.567Z,99721.94
2023-02-01T13:59:53.187Z,99729.97
2023-02-01T14:04:54.880Z,99722.69
2023-02-01T14:09:56.486Z,99731.25
2023-02-01T14:15:22.853Z,99714.84
2023-02-01T14:20:41.946Z,99714.56
2023-02-01T14:25:44.528Z,99706.56
2023-02-01T14:30:48.391Z,99707.25
2023-02-01T14:36:01.816Z,99704.44
2023-02-01T14:41:31.624Z,99701.50
2023-02-01T14:47:04.251Z,99701.72
2023-02-01T14:52:10.951Z,99704.31
2023-02-01T14:57:20.178Z,99707.28
2023-02-01T15:02:25.921Z,99702.94
2023-02-01T15:07:28.208Z,99711.28
2023-02-01T15:12:32.760Z,99698.47
2023-02-01T15:17:37.038Z,99688.53
2023-02-01T15:22:38.627Z,99688.13
2023-02-01T15:27:41.108Z,99685.88
2023-02-01T15:32:42.767Z,99663.19
2023-02-01T15:37:44.334Z,99646.59
2023-02-01T15:42:53.529Z,99639.97
2023-02-01T15:47:57.428Z,99620.78
2023-02-01T15:52:59.072Z,99621.47
2023-02-01T15:58:00.768Z,99620.63
2023-02-01T16:03:05.486Z,99611.28
2023-02-01T16:08:18.491Z,99612.78
2023-02-01T16:13:23.820Z,99619.72
2023-02-01T16:18:25.387Z,99592.22
2023-02-01T16:23:27.144Z,99570.91
2023-02-01T16:28:28.785Z,99580.50
2023-02-01T16:33:30.528Z,99572.66
2023-02-01T16:38:32.404Z,99586.78
2023-02-01T16:43:34.007Z,99618.09
2023-02-01T16:48:36.814Z,99636.44
2023-02-01T16:53:53.162Z,99619.63
2023-02-01T16:58:55.446Z,99638.13
2023-02-01T17:03:57.249Z,99684.03
2023-02-01T17:08:59.858Z,99761.16
2023-02-01T17:14:18.727Z,99702.34
2023-02-01T17:19:24.384Z,99620.13
2023-02-01T17:24:35.728Z,99652.94
2023-02-01T17:29:37.429Z,99679.63
2023-02-01T17:34:39.055Z,99680.47
2023-02-01T17:39:56.059Z,99699.16
2023-02-01T17:45:03.091Z,99708.53
2023-02-01T17:50:04.974Z,99713.22
2023-02-01T17:55:16.688Z,99714.38
2023-02-01T18:00:19.259Z,99710.88
2023-02-01T18:05:27.697Z,99735.28
2023-02-01T18:10:29.405Z,99747.88
2023-02-01T18:15:31.851Z,99753.44
2023-02-01T18:20:35.657Z,99757.47
2023-02-01T18:25:38.624Z,99754.34
2023-02-01T18:30:40.516Z,99752.31
2023-02-01T18:35:42.337Z,99749.66
2023-02-01T18:40:49.193Z,99757.34
2023-02-01T18:45:51.076Z,99750.53
2023-02-01T18:50:57.274Z,99755.75
2023-02-01T18:55:59.737Z,99756.19
2023-02-01T19:01:06.490Z,99749.56
2023-02-01T19:06:08.731Z,99753.78
2023-02-01T19:11:10.451Z,99748.13
2023-02-01T19:16:13.560Z,99756.94
2023-02-01T19:21:15.497Z,99752.13
2023-02-01T19:26:18.007Z,99755.03
2023-02-01T19:31:19.738Z,99763.13
2023-02-01T19:36:21.341Z,99764.69
2023-02-01T19:41:22.927Z,99772.72
2023-02-01T19:46:25.455Z,99763.75
2023-02-01T19:51:27.051Z,99784.06
2023-02-01T19:56:28.643Z,99775.53
2023-02-01T20:01:33.380Z,99766.19
2023-02-01T20:06:38.476Z,99771.88
2023-02-01T20:11:40.129Z,99768.31
2023-02-01T20:16:42.552Z,99781.28
2023-02-01T20:21:44.448Z,99775.41
2023-02-01T20:26:46.942Z,99787.63
2023-02-01T20:31:48.676Z,99808.09
2023-02-01T20:36:50.431Z,99810.69
2023-02-01T20:41:52.059Z,99826.50
2023-02-01T20:46:53.710Z,99816.91
2023-02-01T20:51:57.780Z,99815.63
2023-02-01T20:56:59.379Z,99814.47
2023-02-01T21:02:01.476Z,99824.03
2023-02-01T21:07:03.510Z,99815.84
2023-02-01T21:12:05.264Z,99820.28
2023-02-01T21:17:06.818Z,99817.22
2023-02-01T21:22:12.232Z,99819.06
2023-02-01T21:27:13.930Z,99826.41
2023-02-01T21:32:15.715Z,99829.81
2023-02-01T21:37:17.301Z,99827.94
2023-02-01T21:42:21.789Z,99820.63
2023-02-01T21:47:26.023Z,99825.72
2023-02-01T21:52:28.443Z,99828.91
2023-02-01T21:57:30.056Z,99826.41
2023-02-01T22:02:31.687Z,99823.69
2023-02-01T22:07:35.896Z,99833.16
2023-02-01T22:12:37.671Z,99841.47
2023-02-01T22:17:39.395Z,99843.97
2023-02-01T22:22:41.401Z,99849.06
2023-02-01T22:28:31.090Z,99840.28
2023-02-01T22:33:04.538Z,99839.06
2023-02-01T22:38:06.103Z,99845.50
2023-02-01T22:43:07.732Z,99850.28
2023-02-01T22:48:09.382Z,99845.22
2023-02-01T22:53:11.138Z,99840.47
2023-02-01T22:58:12.830Z,99835.16
2023-02-01T23:03:14.480Z,99829.34
2023-02-01T23:08:16.091Z,99826.22
2023-02-01T23:13:17.701Z,99842.44
2023-02-01T23:18:19.298Z,99844.06
2023-02-01T23:23:21.003Z,99848.91
2023-02-01T23:28:22.569Z,99852.50
2023-02-01T23:33:25.651Z,99865.00
2023-02-01T23:38:27.970Z,99859.78
2023-02-01T23:43:48.212Z,99870.94
2023-02-01T23:48:52.847Z,99869.50
2023-02-01T23:53:55.121Z,99867.59
2023-02-01T23:58:57.098Z,99862.66
